Alamo, Nevada Weather observations

Data are for observation ending at time listed.
 Day   Time    Ave.   Ave.  Ave.  Vector   Max.   Stn.    Total    Solar   Ave.  
  of    of     Air    Rel.  Wind   Wind    Wind   Baro.  Precip.   Rad.    Soil  
Year   Day     Temp.  Hum.  Speed  Dir.    Gust   Pres.                    Temp. 
2016   (PST)    F      %     mph   deg.    mph     mb.     in.     W/m2     F   
------------------------------------------------------------------------------
 121   10:20   48.9    92    1.9   262      4.8   891.7    0.01     125    52.6
 121   10:30   49.5    92    2.4   281      5.8   891.7    0.00     137    52.6
 121   10:40   49.8    90    3.1   281      5.2   891.7    0.00     127    52.8
 121   10:50   49.9    88    3.8   274      8.6   891.6    0.00      96    53.0
 121   11:00   50.2    86    3.1   289      6.3   891.5    0.00      84    53.1
 121   11:10   50.7    85    1.7   269      3.4   891.6    0.00      90    53.2
 121   11:20   51.0    83    2.9   281      7.2   891.4    0.01      95    53.3
 121   11:30   51.3    81    2.4   293      5.0   891.3    0.00      88    53.4
 121   11:40   51.6    79    2.3   274      5.2   891.3    0.00      92    53.5
 121   11:50   51.7    76    1.8   300      3.9   891.3    0.00     111    53.6
 121   12:00   52.1    79    0.8   222      2.2   891.1    0.00     114    53.7
 121   12:10   53.0    77    1.4   270      3.6   890.9    0.00     162    53.7
 121   12:20   53.8    69    2.3   223      5.6   890.7    0.00     180    53.9
 121   12:30   54.5    68    1.4   222      5.0   890.7    0.00     177    54.2
 121   12:40   55.2    67    2.9   265      6.6   890.7    0.00     209    54.4
 121   12:50   56.0    66    2.5   277      6.1   890.7    0.00     300    54.6
 121   13:00   56.9    61    2.4   303      5.0   890.7    0.00     315    55.0
 121   13:10   57.2    59    2.4   338      5.5   890.7    0.00     519    55.5
 121   13:20   57.2    61    3.2    14      5.7   890.6    0.00     375    56.2
 121   13:30   56.6    61    2.6    32      4.8   890.5    0.00     461    56.8
 121   13:40   57.5    60    2.8    36      5.0   890.5    0.00     573    57.3
 121   13:50   57.8    57    3.4    23      6.9   890.3    0.00     729    57.8
 121   14:00   58.8    56    2.0    12      5.6   890.0    0.00     843    58.5
 121   14:10   60.8    54    2.4   287      4.5   889.9    0.00     571    59.5
 121   14:20   61.3    53    2.5   312      5.3   889.7    0.00     311    60.6
 121   14:30   60.8    54    2.8   332      5.8   889.6    0.00     400    61.1
 121   14:40   60.7    54    2.4    18      4.9   889.5    0.00     616    61.4
 121   14:50   61.2    52    1.7   358      4.7   889.3    0.00     490    61.8
 121   15:00   61.8    51    2.8    31      4.9   889.2    0.00     433    62.2
 121   15:10   61.6    52    2.1    25      4.1   889.1    0.00     524    62.6
 121   15:20   62.9    50    1.8    17      3.9   889.0    0.00     193    62.7
 121   15:30   63.0    49    1.6    45      3.0   889.0    0.00     491    62.8
 121   15:40   64.5    43    5.1   351     10.0   889.0    0.00     535    62.9
 121   15:50   64.3    42    3.4    14      8.0   889.0    0.00     386    63.2
 121   16:00   64.8    42    1.7   345      4.0   888.9    0.00     254    63.2
 121   16:10   64.9    38    4.8    16     12.4   889.0    0.00     220    63.2
 121   16:20   65.0    33    5.8    35     11.7   889.2    0.00     184    62.9
 121   16:30   64.9    33    4.3    58      9.9   889.4    0.00     118    62.4
 121   16:40   63.6    40    4.5   233     12.0   889.7    0.00      83    61.8
 121   16:50   59.3    60    4.4   204     10.2   889.7    0.00      83    61.2
 121   17:00   58.1    64    2.4   180      7.3   890.0    0.00      86    60.7
 121   17:10   58.4    62    1.3   165      4.9   890.0    0.00      76    60.4
 121   17:20   58.7    62    1.3   171      4.5   890.0    0.00      70    60.1
 121   17:30   58.5    63    0.5   150      1.5   890.0    0.00      47    59.8
 121   17:40   58.0    63    0.8   163      4.3   890.1    0.00      31    59.6
 121   17:50   57.7    64    0.7   210      3.7   890.3    0.00      23    59.4
 121   18:00   57.6    63    2.3    94      9.1   890.8    0.00      21    59.1
 121   18:10   58.1    56    1.7   247      5.3   890.5    0.00      45    58.9
 121   18:20   58.0    57    1.6   205      5.0   890.6    0.00      16    58.6
 121   18:30   57.3    62    1.0   197      2.9   890.7    0.00       3    58.3
 121   18:40   56.3    68    0.2   171      1.7   890.9    0.00       0    58.1
 121   18:50   55.7    68    0.6   194      2.4   891.1    0.00       0    57.9
 121   19:00   55.6    70    0.3   164      2.2   891.3    0.00       0    57.7
 121   19:10   55.2    73    0.5   146      2.2   891.5    0.00       0    57.6
 121   19:20   55.1    74    0.5   208      2.0   891.7    0.00       0    57.4
 121   19:30   55.1    72    1.9   218      5.8   891.8    0.00       0    57.2
 121   19:40   54.7    74    1.0   210      2.9   892.0    0.00       0    57.0
 121   19:50   54.2    74    1.8   206      4.6   892.1    0.00       0    56.8
 121   20:00   55.1    67    2.5   213      4.2   892.2    0.00       0    56.6
 121   20:10   55.4    64    1.2   223      3.7   892.4    0.00       0    56.4
 121   20:20   54.9    67    1.7   322      3.5   892.6    0.00       0    56.2
 121   20:30   54.0    71    0.8   255      2.2   892.6    0.00       0    56.0
 121   20:40   53.4    73    2.1    40      6.1   892.8    0.00       0    55.8
 121   20:50   52.8    75    0.7    19      2.3   892.9    0.00       0    55.6
 121   21:00   52.0    77    0.6    40      3.6   892.9    0.00       0    55.4
 121   21:10   51.4    79    0.4    28      1.9   893.0    0.00       0    55.1
 121   21:20   50.8    80    0.1   340      1.0   892.9    0.00       0    54.9
 121   21:30   50.4    79    0.4   154      1.9   893.0    0.00       0    54.7
 121   21:40   50.0    80    1.1   245      6.7   893.1    0.00       0    54.5
 121   21:50   51.3    69    1.7   289      5.9   893.1    0.00       0    54.3
 121   22:00   52.6    61    2.3   358      6.6   893.1    0.00       0    54.1
 121   22:10   53.6    56    3.1   311      7.0   893.1    0.00       0    54.0
 121   22:20   53.9    55    3.5   318      8.4   893.1    0.00       0    53.8
 121   22:30   54.3    54    3.6   329      9.2   893.1    0.00       0    53.6
 121   22:40   54.3    54    3.8   310      9.1   893.1    0.00       0    53.4
 121   22:50   54.2    54    4.6   320     10.5   893.1    0.00       0    53.2
 121   23:00   54.5    52    3.6   326      7.9   893.2    0.00       0    53.0
 121   23:10   54.2    54    2.9   339      7.1   893.3    0.00       0    52.9
 121   23:20   53.5    56    2.6   336      6.0   893.4    0.00       0    52.7
 121   23:30   53.1    57    2.5   336      7.1   893.4    0.00       0    52.6
 121   23:40   52.6    58    1.8    22      4.1   893.5    0.00       0    52.5
 121   23:50   52.3    58    3.0   348      7.8   893.5    0.00       0    52.3
 122    0:00   51.3    62    2.6    37      4.7   893.6    0.00       0    52.2
 122    0:10   50.6    63    2.4   360      6.7   893.5    0.00       0    52.1
 122    0:20   50.9    60    3.1   348      6.6   893.4    0.00       0    51.9
 122    0:30   49.8    65    2.7    46      4.8   893.5    0.00       0    51.7
 122    0:40   49.1    66    3.2    28      6.6   893.4    0.00       0    51.6
 122    0:50   48.8    66    3.5    23      5.4   893.5    0.00       0    51.4
 122    1:00   48.3    68    3.2    32      5.5   893.5    0.00       0    51.2
 122    1:10   47.5    71    3.5    19      5.9   893.5    0.00       0    51.0
 122    1:20   47.4    71    2.8    18      4.9   893.4    0.00       0    50.8
 122    1:30   47.0    72    2.2    23      4.5   893.4    0.00       0    50.7
 122    1:40   47.4    70    2.4     5      5.3   893.4    0.00       0    50.5
 122    1:50   47.7    69    1.7    24      4.2   893.4    0.00       0    50.3
 122    2:00   47.7    69    1.6     9      3.4   893.4    0.00       0    50.3
 122    2:10   47.8    70    1.9    39      3.9   893.4    0.00       0    50.2
 122    2:20   47.4    71    2.2    53      3.9   893.5    0.00       0    50.1
 122    2:30   46.6    74    1.8    27      4.3   893.5    0.00       0    50.1
 122    2:40   46.0    74    2.2    14      5.2   893.6    0.00       0    50.0
 122    2:50   47.7    67    3.1   318      7.7   893.6    0.00       0    49.9
 122    3:00   48.3    65    2.8   310      5.8   893.6    0.00       0    49.8
 122    3:10   48.5    64    2.3   352      5.6   893.7    0.00       0    49.7
 122    3:20   47.7    66    2.7    26      6.1   893.8    0.00       0    49.5
 122    3:30   46.5    70    2.5    32      4.3   893.8    0.00       0    49.4
 122    3:40   46.2    71    2.1    36      4.6   893.8    0.00       0    49.3
 122    3:50   46.1    71    1.8    55      4.3   893.9    0.00       0    49.2
 122    4:00   46.4    70    2.2    59      4.7   893.9    0.00       0    49.0
 122    4:10   46.7    69    1.9     9      3.8   893.9    0.00       0    48.9
 122    4:20   45.9    72    1.9   336      3.5   893.9    0.00       0    48.8
 122    4:30   45.5    72    1.9     4      3.7   894.0    0.00       0    48.7
 122    4:40   45.2    73    2.6    47      5.1   894.1    0.00       0    48.7
 122    4:50   44.9    74    2.8    40      6.0   894.2    0.00       0    48.5
 122    5:00   44.7    75    2.7    51      5.3   894.3    0.00       2    48.4
 122    5:10   44.9    74    2.2    16      5.0   894.3    0.00       9    48.3
 122    5:20   45.0    73    2.1    29      3.9   894.4    0.00      14    48.2
 122    5:30   45.2    73    2.2    22      4.1   894.6    0.00      23    48.1
 122    5:40   45.8    72    3.0    35      5.3   894.7    0.00      87    48.1
 122    5:50   46.9    69    2.8    24      5.3   894.8    0.00      63    48.1
 122    6:00   46.6    71    2.2    37      4.0   894.9    0.00      41    48.1
 122    6:10   46.6    71    2.7    36      4.7   894.9    0.00      41    48.1
 122    6:20   47.3    70    2.7    26      5.6   895.0    0.00      51    48.2
 122    6:30   48.9    67    2.7    29      4.9   895.1    0.00      53    48.3
 122    6:40   48.2    69    3.2    23      5.4   895.2    0.00      56    48.5
 122    6:50   48.8    68    3.9     8      6.0   895.2    0.00      60    48.7
 122    7:00   49.8    67    3.9     8      6.7   895.2    0.00      45    48.7
 122    7:10   51.0    64    4.2     8      6.7   895.2    0.00      43    48.8
 122    7:20   52.6    60    3.8     7      6.1   895.2    0.00      41    48.9
 122    7:30   53.9    56    4.3     3      7.7   895.2    0.00      44    49.0
 122    7:40   55.0    52    6.1   353     10.7   895.1    0.00     130    49.1
 122    7:50   55.8    50    5.8   354     12.0   895.1    0.00      94    49.2
 122    8:00   56.5    49    5.5   344     10.8   895.1    0.00      41    49.3
 122    8:10   57.4    47    5.9   345     11.0   895.0    0.00      47    49.4
 122    8:20   57.9    47    5.7   328     14.2   895.1    0.00      49    49.4
 122    8:30   58.6    44    5.8   334      9.9   895.1    0.00      58    49.6
 122    8:40   59.1    44    5.5   338      9.2   895.1    0.00      85    49.7
 122    8:50   59.7    42    6.3   327     11.5   895.0    0.00     111    49.9
 122    9:00   60.0    41    6.0   314     13.8   895.0    0.00     102    50.1
 122    9:10   60.5    42    4.7   320      9.6   895.0    0.00      93    50.3
 122    9:20   61.4    40    6.1   324     10.2   895.0    0.00      83    50.5
 122    9:30   61.3    38    5.8   321     10.8   895.0    0.00      58    50.7
 122    9:40   61.6    39    5.0   321     11.1   895.0    0.00     114    50.8
 122    9:50   62.1    38    5.4   338     10.7   895.0    0.00      48    50.9
 122   10:00   62.7    38    5.6   331     10.0   894.9    0.00      53    51.0
 122   10:10   63.0    36    5.3   350     10.6   894.9    0.00      56    51.1

Return to Alamo, Nevada graphs page.


Western Regional Climate Center,wrcc@dri.edu